Time;durP1;ratioP1;P1;durP2;ratioP2;P2;SDS_P1;SDS_P2;PMS_P1;PMS_P2;Temp;Humidity;BMP_temperature;BMP_pressure;BME280_temperature;BME280_humidity;BME280_pressure;Samples;Min_cycle;Max_cycle;Signal;HPM_P1;HPM_P2
2023/04/27 00:00:17;;;;;;;14.82;5.72;;;5.90;66.40;;;;;;4901729;29;20049;-93
2023/04/27 00:02:45;;;;;;;14.60;5.38;;;5.90;66.60;;;;;;4901849;29;20053;-92
2023/04/27 00:05:12;;;;;;;13.35;5.80;;;5.90;67.00;;;;;;4901862;29;20040;-92
2023/04/27 00:07:40;;;;;;;14.68;5.00;;;6.00;66.90;;;;;;4901554;29;20159;-92
2023/04/27 00:10:08;;;;;;;15.63;5.37;;;6.00;66.80;;;;;;4902310;29;20044;-93
2023/04/27 00:12:35;;;;;;;14.25;5.22;;;5.90;66.60;;;;;;4902139;29;20049;-93
2023/04/27 00:15:05;;;;;;;14.13;5.10;;;5.90;66.00;;;;;;4893641;29;20180;-93
2023/04/27 00:17:32;;;;;;;17.48;5.45;;;5.80;66.30;;;;;;4900758;29;20048;-93
2023/04/27 00:20:00;;;;;;;14.45;5.22;;;5.80;66.50;;;;;;4901387;29;20483;-93
2023/04/27 00:22:27;;;;;;;15.30;4.90;;;5.90;66.40;;;;;;4901406;29;20045;-93
2023/04/27 00:24:54;;;;;;;12.38;5.00;;;5.80;66.90;;;;;;4901758;29;20059;-91
2023/04/27 00:27:23;;;;;;;12.88;5.15;;;5.90;67.10;;;;;;4901570;29;20055;-92
2023/04/27 00:29:50;;;;;;;14.07;5.22;;;5.90;67.00;;;;;;4901731;29;20056;-92
2023/04/27 00:32:20;;;;;;;11.73;4.50;;;6.00;67.20;;;;;;4901918;29;20104;-92
2023/04/27 00:34:48;;;;;;;12.93;4.43;;;5.90;67.10;;;;;;4901731;29;20630;-92
2023/04/27 00:37:15;;;;;;;11.50;4.70;;;6.00;67.40;;;;;;4901860;29;20053;-93
2023/04/27 00:39:44;;;;;;;12.75;5.50;;;6.00;67.40;;;;;;4886962;29;20143;-91
2023/04/27 00:42:16;;;;;;;13.57;4.63;;;6.00;67.00;;;;;;4902099;29;20139;-92
2023/04/27 00:44:43;;;;;;;12.75;4.50;;;6.00;66.90;;;;;;4901732;29;20048;-92
2023/04/27 00:47:10;;;;;;;12.20;4.77;;;6.00;67.10;;;;;;4901108;29;20410;-92
2023/04/27 00:49:39;;;;;;;14.68;5.05;;;6.10;66.80;;;;;;4886459;29;20052;-92
2023/04/27 00:52:06;;;;;;;12.90;4.35;;;6.10;67.20;;;;;;4886425;29;20048;-92
2023/04/27 00:54:33;;;;;;;13.65;4.72;;;6.00;66.10;;;;;;4901521;29;20053;-91
2023/04/27 00:57:02;;;;;;;13.45;4.80;;;6.00;66.60;;;;;;4886288;29;20044;-92
2023/04/27 00:59:30;;;;;;;16.37;4.70;;;5.90;66.60;;;;;;4886189;29;20463;-92
2023/04/27 01:01:57;;;;;;;11.20;5.03;;;5.90;66.80;;;;;;4901156;29;20092;-91
2023/04/27 01:04:24;;;;;;;12.65;4.32;;;5.90;66.70;;;;;;4885402;29;20048;-92
2023/04/27 01:06:52;;;;;;;11.00;4.45;;;5.90;67.30;;;;;;4900657;29;20100;-92
2023/04/27 01:09:20;;;;;;;12.18;3.75;;;6.00;67.60;;;;;;4900176;29;20502;-92
2023/04/27 01:11:49;;;;;;;12.53;4.40;;;5.90;67.70;;;;;;4900179;29;20052;-92
2023/04/27 01:14:16;;;;;;;13.02;4.80;;;5.90;66.50;;;;;;4884695;29;20521;-92
2023/04/27 01:16:47;;;;;;;12.18;4.32;;;5.90;66.80;;;;;;4879530;29;20096;-92
2023/04/27 01:19:14;;;;;;;12.95;4.40;;;5.80;66.90;;;;;;4882791;29;20140;-92
2023/04/27 01:21:42;;;;;;;10.63;4.32;;;5.80;67.30;;;;;;4900071;29;20044;-95
2023/04/27 01:24:09;;;;;;;15.10;4.63;;;5.80;67.30;;;;;;4889254;29;20578;-92
2023/04/27 01:26:36;;;;;;;11.02;4.22;;;5.70;67.20;;;;;;4884799;29;20049;-92
2023/04/27 01:29:03;;;;;;;11.75;4.80;;;5.70;67.60;;;;;;4884998;29;20048;-92
2023/04/27 01:31:31;;;;;;;13.65;4.85;;;5.70;67.70;;;;;;4900073;29;20119;-92
2023/04/27 01:33:58;;;;;;;11.55;4.75;;;5.80;67.50;;;;;;4889324;29;20507;-92
2023/04/27 01:36:26;;;;;;;13.23;4.83;;;5.80;67.50;;;;;;4884405;29;20052;-92
2023/04/27 01:38:55;;;;;;;14.23;4.85;;;5.80;67.40;;;;;;4894644;29;20048;-92
2023/04/27 01:41:22;;;;;;;12.43;4.60;;;5.70;67.70;;;;;;4900591;29;20044;-92
2023/04/27 01:43:49;;;;;;;12.18;4.70;;;5.70;67.70;;;;;;4900341;29;20055;-91
2023/04/27 01:46:17;;;;;;;13.13;4.40;;;5.70;68.00;;;;;;4900166;29;20079;-93
2023/04/27 01:48:44;;;;;;;11.53;4.27;;;5.70;67.50;;;;;;4891441;29;20052;-92
2023/04/27 01:51:11;;;;;;;11.13;4.13;;;5.60;67.60;;;;;;4884565;29;20132;-93
2023/04/27 01:53:40;;;;;;;12.30;4.97;;;5.60;68.00;;;;;;4900502;29;20048;-93
2023/04/27 01:56:09;;;;;;;12.30;4.63;;;5.60;67.90;;;;;;4900102;29;20040;-93
2023/04/27 01:58:36;;;;;;;10.90;4.38;;;5.50;68.20;;;;;;4884339;29;20427;-93
2023/04/27 02:01:03;;;;;;;13.83;4.87;;;5.50;68.50;;;;;;4884924;29;20052;-92
2023/04/27 02:03:30;;;;;;;11.65;4.45;;;5.50;68.70;;;;;;4900026;29;20060;-92
2023/04/27 02:05:57;;;;;;;13.48;4.80;;;5.40;69.00;;;;;;4899981;29;20068;-92
2023/04/27 02:08:25;;;;;;;11.98;4.43;;;5.30;69.30;;;;;;4884524;29;20056;-92
2023/04/27 02:10:52;;;;;;;11.70;5.07;;;5.20;69.40;;;;;;4900036;29;20040;-92
2023/04/27 02:13:20;;;;;;;13.23;5.03;;;5.20;69.50;;;;;;4887100;29;20052;-92
2023/04/27 02:15:47;;;;;;;14.23;5.07;;;5.10;69.70;;;;;;4899329;29;20056;-91
2023/04/27 02:18:14;;;;;;;13.68;5.25;;;5.10;69.90;;;;;;4887335;29;20071;-91
2023/04/27 02:20:41;;;;;;;14.05;5.10;;;5.10;69.90;;;;;;4899363;29;20100;-91
2023/04/27 02:23:08;;;;;;;15.77;5.55;;;5.20;70.00;;;;;;4899274;29;20043;-92
2023/04/27 02:25:37;;;;;;;14.47;4.90;;;5.20;69.60;;;;;;4883841;29;20051;-92
2023/04/27 02:28:04;;;;;;;15.70;5.60;;;5.10;70.00;;;;;;4898920;29;20040;-92
2023/04/27 02:30:32;;;;;;;14.35;5.35;;;5.10;69.80;;;;;;4883836;29;20055;-91
2023/04/27 02:32:59;;;;;;;13.52;5.40;;;4.90;69.90;;;;;;4898837;29;20054;-92
2023/04/27 02:35:27;;;;;;;13.18;5.38;;;4.90;70.50;;;;;;4867944;29;20059;-91
2023/04/27 02:37:54;;;;;;;16.13;5.57;;;4.90;70.40;;;;;;4883411;29;20561;-92
2023/04/27 02:40:21;;;;;;;14.73;5.20;;;4.90;70.60;;;;;;4883270;29;20044;-92
2023/04/27 02:42:48;;;;;;;15.77;5.18;;;4.90;70.40;;;;;;4883592;29;20055;-93
2023/04/27 02:45:15;;;;;;;16.10;5.53;;;4.90;70.70;;;;;;4868059;29;20040;-93
2023/04/27 02:47:42;;;;;;;13.25;5.00;;;4.70;70.80;;;;;;4867855;29;20052;-92
2023/04/27 02:50:12;;;;;;;12.73;4.67;;;4.70;71.00;;;;;;4868359;29;20049;-92
2023/04/27 02:52:39;;;;;;;13.63;5.38;;;4.70;71.00;;;;;;4867264;29;20131;-92
2023/04/27 02:55:07;;;;;;;12.60;5.15;;;4.70;71.20;;;;;;4868062;29;20413;-92
2023/04/27 02:57:34;;;;;;;12.68;4.90;;;4.70;71.20;;;;;;4867876;29;20048;-91
2023/04/27 03:00:05;;;;;;;11.63;4.93;;;4.80;71.10;;;;;;4867448;29;20044;-92
2023/04/27 03:02:32;;;;;;;16.17;5.97;;;4.90;70.50;;;;;;4883187;29;20525;-92
2023/04/27 03:05:00;;;;;;;19.92;6.13;;;4.90;70.70;;;;;;4867636;29;20414;-92
2023/04/27 03:07:27;;;;;;;16.88;6.57;;;4.90;70.70;;;;;;4867994;29;20086;-93
2023/04/27 03:09:55;;;;;;;16.05;5.68;;;4.90;70.60;;;;;;4882560;29;20075;-91
2023/04/27 03:12:24;;;;;;;14.73;5.50;;;4.90;70.10;;;;;;4882805;29;20052;-92
2023/04/27 03:14:51;;;;;;;14.30;5.47;;;5.00;70.10;;;;;;4867584;29;20052;-92
2023/04/27 03:17:18;;;;;;;14.90;5.68;;;4.90;70.20;;;;;;4867443;29;20517;-92
2023/04/27 03:20:00;;;;;;;14.48;5.55;;;4.90;70.40;;;;;;4873876;29;20460;-92
2023/04/27 03:22:31;;;;;;;13.52;5.55;;;4.90;70.80;;;;;;4865536;29;20055;-92
2023/04/27 03:25:03;;;;;;;12.38;5.43;;;4.90;70.70;;;;;;4867864;29;20052;-91
2023/04/27 03:27:31;;;;;;;14.33;5.57;;;4.90;70.50;;;;;;4883062;29;20459;-93
2023/04/27 03:29:58;;;;;;;13.20;6.15;;;4.90;70.80;;;;;;4867557;29;20503;-92
2023/04/27 03:32:25;;;;;;;14.65;5.82;;;4.80;70.50;;;;;;4867355;29;20147;-91
2023/04/27 03:34:53;;;;;;;14.50;5.80;;;4.80;70.20;;;;;;4896485;29;20053;-94
2023/04/27 03:37:22;;;;;;;17.70;5.55;;;4.70;70.60;;;;;;4887975;29;20049;-95
2023/04/27 03:39:52;;;;;;;17.60;5.57;;;4.70;70.60;;;;;;4885284;29;20040;-92
2023/04/27 03:42:19;;;;;;;16.98;5.78;;;4.80;70.10;;;;;;4883318;29;20076;-92
2023/04/27 03:44:46;;;;;;;14.48;6.30;;;4.70;70.30;;;;;;4900598;29;20048;-91
2023/04/27 03:47:13;;;;;;;14.88;5.18;;;4.70;70.70;;;;;;4883354;29;20427;-91
2023/04/27 03:49:41;;;;;;;14.82;5.70;;;4.60;70.50;;;;;;4882940;29;20104;-91
2023/04/27 03:52:08;;;;;;;16.33;6.37;;;4.60;70.70;;;;;;4898176;29;20044;-91
2023/04/27 03:54:36;;;;;;;16.10;5.93;;;4.60;70.80;;;;;;4898009;29;20083;-91
2023/04/27 03:57:03;;;;;;;12.73;5.53;;;4.60;70.70;;;;;;4897201;29;20040;-91
2023/04/27 03:59:30;;;;;;;16.13;5.53;;;4.60;70.30;;;;;;4881956;29;20048;-90
2023/04/27 04:01:57;;;;;;;11.40;5.35;;;4.60;70.80;;;;;;4881916;29;20072;-91
2023/04/27 04:04:27;;;;;;;16.43;5.87;;;4.50;70.80;;;;;;4897126;29;20045;-91
2023/04/27 04:06:54;;;;;;;16.02;5.72;;;4.50;70.90;;;;;;4897499;29;20045;-91
2023/04/27 04:09:21;;;;;;;13.50;5.28;;;4.50;71.00;;;;;;4882535;29;20529;-91
2023/04/27 04:11:51;;;;;;;16.25;5.40;;;4.60;70.90;;;;;;4882402;29;20048;-91
2023/04/27 04:14:18;;;;;;;14.73;6.03;;;4.50;70.60;;;;;;4881959;29;20051;-91
2023/04/27 04:16:45;;;;;;;14.10;5.60;;;4.50;70.80;;;;;;4889354;29;20395;-91
2023/04/27 04:19:12;;;;;;;13.90;5.38;;;4.50;70.80;;;;;;4882134;29;20037;-91
2023/04/27 04:21:42;;;;;;;16.13;6.05;;;4.50;71.00;;;;;;4900164;29;20040;-91
2023/04/27 04:24:09;;;;;;;17.85;5.75;;;4.50;70.80;;;;;;4891125;29;20045;-91
2023/04/27 04:26:38;;;;;;;15.52;6.75;;;4.50;71.20;;;;;;4900879;29;20104;-90
2023/04/27 04:29:05;;;;;;;17.73;5.90;;;4.50;71.10;;;;;;4897439;29;20605;-90
2023/04/27 04:31:34;;;;;;;16.85;6.05;;;4.50;71.50;;;;;;4900876;29;20040;-91
2023/04/27 04:34:02;;;;;;;17.63;6.22;;;4.60;71.30;;;;;;4898572;29;20052;-91
2023/04/27 04:36:30;;;;;;;17.75;6.10;;;4.60;71.50;;;;;;4909182;29;20052;-90
2023/04/27 04:38:58;;;;;;;14.65;6.13;;;4.50;71.40;;;;;;4903932;29;20488;-91
2023/04/27 04:41:25;;;;;;;16.23;6.60;;;4.50;72.00;;;;;;4906233;29;20045;-91
2023/04/27 04:43:53;;;;;;;15.05;5.63;;;4.50;72.20;;;;;;4904013;29;20048;-91
2023/04/27 04:46:21;;;;;;;16.48;6.90;;;4.60;71.50;;;;;;4885523;29;20509;-91
2023/04/27 04:48:54;;;;;;;19.63;7.35;;;4.70;71.50;;;;;;4900147;29;20051;-92
2023/04/27 04:51:22;;;;;;;17.13;5.93;;;4.90;71.80;;;;;;4900226;29;20052;-90
2023/04/27 04:53:48;;;;;;;15.63;5.93;;;4.90;71.10;;;;;;4884485;29;20048;-91
2023/04/27 04:56:16;;;;;;;16.00;5.95;;;4.90;71.00;;;;;;4878055;29;20079;-90
2023/04/27 04:58:43;;;;;;;13.27;5.82;;;5.00;70.90;;;;;;4892260;29;20096;-90
2023/04/27 05:01:10;;;;;;;16.85;6.43;;;5.00;70.90;;;;;;4883464;29;20038;-91
2023/04/27 05:03:37;;;;;;;15.90;6.10;;;5.00;70.90;;;;;;4883799;29;20096;-91
2023/04/27 05:06:05;;;;;;;16.13;5.67;;;5.00;70.10;;;;;;4883497;29;20045;-93
2023/04/27 05:08:32;;;;;;;15.98;6.30;;;5.00;70.20;;;;;;4885226;29;20147;-93
2023/04/27 05:10:59;;;;;;;21.77;6.13;;;5.00;70.30;;;;;;4885405;29;20057;-92
2023/04/27 05:13:26;;;;;;;13.85;5.38;;;5.00;71.00;;;;;;4885282;29;20095;-92
2023/04/27 05:15:54;;;;;;;16.85;5.35;;;5.10;70.60;;;;;;4885337;29;20080;-94
2023/04/27 05:18:21;;;;;;;17.13;5.37;;;5.10;71.00;;;;;;4901087;29;20554;-92
2023/04/27 05:20:48;;;;;;;19.08;5.32;;;5.30;70.60;;;;;;4885357;29;20423;-93
2023/04/27 05:23:15;;;;;;;13.85;5.65;;;5.40;70.20;;;;;;4884111;29;20491;-91
2023/04/27 05:25:42;;;;;;;15.23;5.60;;;5.50;70.10;;;;;;4883875;29;20040;-91
2023/04/27 05:28:09;;;;;;;14.27;5.50;;;5.50;70.10;;;;;;4890047;29;20056;-90
2023/04/27 05:30:38;;;;;;;14.57;5.67;;;5.50;69.50;;;;;;4884264;29;20052;-91
2023/04/27 05:33:05;;;;;;;11.75;5.10;;;5.60;69.20;;;;;;4898310;29;20075;-91
2023/04/27 05:35:33;;;;;;;15.38;5.75;;;5.50;69.70;;;;;;4902432;29;20057;-91
2023/04/27 05:38:00;;;;;;;15.73;5.13;;;5.60;69.30;;;;;;4929620;29;20068;-91
2023/04/27 05:40:30;;;;;;;13.82;5.50;;;5.70;69.50;;;;;;4899507;29;20482;-90
2023/04/27 05:42:57;;;;;;;13.97;5.57;;;5.90;69.20;;;;;;4889308;29;20033;-90
2023/04/27 05:45:24;;;;;;;13.40;5.20;;;5.90;67.80;;;;;;4897826;29;20530;-91
2023/04/27 05:47:51;;;;;;;13.35;5.07;;;5.90;67.80;;;;;;4907904;29;20051;-91
2023/04/27 05:50:19;;;;;;;11.88;5.38;;;6.00;68.10;;;;;;4905756;29;20135;-90
2023/04/27 05:52:46;;;;;;;13.88;5.63;;;6.10;68.10;;;;;;4908589;29;20144;-91
2023/04/27 05:55:13;;;;;;;17.10;5.63;;;6.20;68.60;;;;;;4908740;29;20045;-91
2023/04/27 05:57:40;;;;;;;14.38;5.80;;;6.40;68.40;;;;;;4888302;29;20140;-91
2023/04/27 06:00:09;;;;;;;12.00;4.95;;;6.50;67.70;;;;;;4910023;29;20067;-91
2023/04/27 06:02:39;;;;;;;13.63;4.85;;;6.60;67.10;;;;;;4884446;29;20044;-91
2023/04/27 06:05:07;;;;;;;13.20;4.80;;;6.60;67.10;;;;;;4883640;29;20048;-91
2023/04/27 06:07:36;;;;;;;12.77;5.63;;;6.70;68.30;;;;;;4899100;29;20135;-91
2023/04/27 06:10:06;;;;;;;14.57;6.40;;;6.70;68.60;;;;;;4899802;29;20100;-92
2023/04/27 06:12:33;;;;;;;16.15;6.53;;;6.90;67.80;;;;;;4883476;29;20056;-92
2023/04/27 06:15:07;;;;;;;17.90;6.93;;;7.00;67.20;;;;;;4889198;29;20403;-91
2023/04/27 06:17:38;;;;;;;19.92;7.57;;;7.20;67.10;;;;;;4898824;29;20057;-91
2023/04/27 06:20:06;;;;;;;20.53;6.47;;;7.30;66.00;;;;;;4898367;29;20063;-91
2023/04/27 06:22:33;;;;;;;12.60;5.03;;;7.40;65.40;;;;;;4883254;29;20550;-91
2023/04/27 06:25:00;;;;;;;17.92;5.20;;;7.50;62.70;;;;;;4898506;29;20049;-92
2023/04/27 06:27:27;;;;;;;12.38;4.57;;;7.50;62.50;;;;;;4883028;29;20072;-91
2023/04/27 06:29:54;;;;;;;16.38;5.63;;;7.60;61.10;;;;;;4898887;29;20483;-91
2023/04/27 06:32:21;;;;;;;13.50;4.20;;;7.80;61.70;;;;;;4893399;29;20579;-91
2023/04/27 06:34:48;;;;;;;12.10;3.80;;;7.90;61.70;;;;;;4898652;29;20064;-91
2023/04/27 06:37:16;;;;;;;11.00;3.90;;;8.00;60.40;;;;;;4898537;29;20543;-91
2023/04/27 06:39:43;;;;;;;10.18;3.53;;;8.00;60.50;;;;;;4898968;29;20044;-92
2023/04/27 06:42:10;;;;;;;10.48;4.07;;;8.10;60.40;;;;;;4882926;29;20095;-91
2023/04/27 06:44:38;;;;;;;13.70;4.10;;;8.10;60.50;;;;;;4882471;29;20044;-92
2023/04/27 06:47:05;;;;;;;10.80;3.70;;;8.10;60.60;;;;;;4882498;29;20080;-91
2023/04/27 06:49:32;;;;;;;14.13;6.78;;;8.20;60.30;;;;;;4888024;29;20071;-92
2023/04/27 06:52:01;;;;;;;11.65;3.75;;;8.20;61.10;;;;;;4897822;29;20056;-92
2023/04/27 06:54:29;;;;;;;10.02;3.15;;;8.20;59.70;;;;;;4872474;29;20073;-92
2023/04/27 06:56:56;;;;;;;8.70;3.07;;;8.30;59.60;;;;;;4898102;29;20530;-92
2023/04/27 06:59:23;;;;;;;7.35;3.47;;;8.30;59.40;;;;;;4893230;29;20612;-92
2023/04/27 07:01:50;;;;;;;9.77;3.22;;;8.40;57.80;;;;;;4904480;29;20041;-92
2023/04/27 07:04:20;;;;;;;8.90;3.08;;;8.40;58.10;;;;;;4885576;29;20045;-92
2023/04/27 07:06:47;;;;;;;9.15;3.20;;;8.50;57.90;;;;;;4904008;29;20385;-92
2023/04/27 07:09:14;;;;;;;11.97;3.20;;;8.60;58.70;;;;;;4903547;29;20049;-92
2023/04/27 07:11:54;;;;;;;11.27;3.38;;;8.70;57.50;;;;;;4909943;29;20575;-91
2023/04/27 07:14:21;;;;;;;8.68;3.42;;;8.70;56.50;;;;;;4901287;29;20049;-91
2023/04/27 07:16:48;;;;;;;11.93;3.35;;;8.70;57.20;;;;;;4908104;29;20052;-92
2023/04/27 07:19:15;;;;;;;12.57;3.50;;;8.80;56.20;;;;;;4906143;29;20096;-92
2023/04/27 07:21:45;;;;;;;11.73;3.33;;;8.90;55.70;;;;;;4897352;29;20051;-92
2023/04/27 07:24:12;;;;;;;10.15;3.15;;;8.90;56.60;;;;;;4898061;29;20041;-92
2023/04/27 07:26:40;;;;;;;11.90;3.33;;;9.00;57.00;;;;;;4894768;29;20075;-92
2023/04/27 07:29:08;;;;;;;11.55;2.78;;;9.00;56.40;;;;;;4882454;29;20112;-91
2023/04/27 07:31:53;;;;;;;8.13;3.05;;;9.00;55.70;;;;;;4903851;29;20140;-92
2023/04/27 07:34:20;;;;;;;8.93;2.63;;;9.00;55.40;;;;;;4897674;29;20075;-92
2023/04/27 07:36:47;;;;;;;9.65;2.58;;;9.10;54.30;;;;;;4897688;29;20518;-92
2023/04/27 07:39:14;;;;;;;10.45;3.35;;;9.20;53.90;;;;;;4880767;29;20065;-92
2023/04/27 07:41:42;;;;;;;11.43;2.90;;;9.20;54.60;;;;;;4897921;29;20049;-92
2023/04/27 07:44:11;;;;;;;10.68;3.10;;;9.20;54.90;;;;;;4898154;29;20044;-91
2023/04/27 07:46:38;;;;;;;8.90;2.60;;;9.20;54.50;;;;;;4897581;29;20139;-92
2023/04/27 07:49:05;;;;;;;12.10;2.90;;;9.20;53.00;;;;;;4891503;29;20075;-92
2023/04/27 07:51:33;;;;;;;8.90;2.22;;;9.50;52.70;;;;;;4881582;29;20052;-91
2023/04/27 07:54:01;;;;;;;6.80;2.63;;;9.70;53.80;;;;;;4890982;29;20049;-92
2023/04/27 07:56:30;;;;;;;9.80;3.53;;;9.80;52.40;;;;;;4899386;29;20049;-91
2023/04/27 07:58:57;;;;;;;10.97;3.87;;;10.00;54.40;;;;;;4883868;29;20096;-91
2023/04/27 08:01:25;;;;;;;10.25;3.17;;;10.00;53.30;;;;;;4900695;29;20045;-92
2023/04/27 08:03:52;;;;;;;9.35;3.60;;;9.90;55.30;;;;;;4885503;29;20048;-92
2023/04/27 08:06:19;;;;;;;10.50;4.07;;;9.80;54.70;;;;;;4900829;29;20047;-92
2023/04/27 08:08:47;;;;;;;8.52;3.17;;;9.80;54.70;;;;;;4884646;29;20044;-92
2023/04/27 08:11:14;;;;;;;6.77;2.57;;;9.80;51.80;;;;;;4907048;29;20044;-92
2023/04/27 08:13:41;;;;;;;8.73;3.97;;;9.90;52.10;;;;;;4885540;29;20501;-92
2023/04/27 08:16:08;;;;;;;10.80;2.90;;;9.90;50.50;;;;;;4884763;29;21026;-92
2023/04/27 08:18:36;;;;;;;10.88;2.90;;;9.90;50.50;;;;;;4900705;29;20045;-91
2023/04/27 08:21:03;;;;;;;8.80;3.58;;;9.80;51.60;;;;;;4900728;29;20439;-92
2023/04/27 08:23:31;;;;;;;14.07;2.97;;;9.90;52.10;;;;;;4888731;29;20477;-92
2023/04/27 08:25:58;;;;;;;10.90;3.85;;;9.80;50.70;;;;;;4900673;29;20047;-91
2023/04/27 08:28:25;;;;;;;9.05;3.35;;;9.70;50.80;;;;;;4891393;29;20414;-91
2023/04/27 08:30:53;;;;;;;8.65;3.20;;;9.70;51.30;;;;;;4892636;29;20048;-91
2023/04/27 08:33:20;;;;;;;7.93;3.33;;;9.80;50.80;;;;;;4890839;29;20503;-92
2023/04/27 08:35:47;;;;;;;6.93;3.20;;;9.80;53.20;;;;;;4909426;29;20073;-92
2023/04/27 08:38:14;;;;;;;9.00;3.50;;;9.80;52.30;;;;;;4903781;29;20572;-91
2023/04/27 08:40:42;;;;;;;9.93;3.35;;;9.60;53.50;;;;;;4899334;29;20055;-92
2023/04/27 08:43:09;;;;;;;11.15;4.15;;;9.50;53.20;;;;;;4884632;29;20132;-92
2023/04/27 08:45:36;;;;;;;13.50;3.70;;;9.50;55.90;;;;;;4884198;29;20135;-91
2023/04/27 08:48:04;;;;;;;8.97;3.47;;;9.50;54.00;;;;;;4884502;29;20112;-91
2023/04/27 08:50:31;;;;;;;11.55;3.92;;;9.50;54.30;;;;;;4884468;29;20139;-92
2023/04/27 08:52:58;;;;;;;15.55;7.07;;;9.50;54.30;;;;;;4899916;29;20048;-91
2023/04/27 08:55:25;;;;;;;10.73;4.07;;;9.80;54.00;;;;;;4899950;29;20072;-92
2023/04/27 08:57:57;;;;;;;15.70;5.70;;;9.90;54.20;;;;;;4897714;29;20076;-91
2023/04/27 09:00:25;;;;;;;12.50;4.17;;;10.00;53.90;;;;;;4875776;29;20104;-91
2023/04/27 09:02:52;;;;;;;8.52;3.72;;;10.00;53.70;;;;;;4886708;29;20041;-92
2023/04/27 09:05:22;;;;;;;14.02;5.28;;;9.90;53.20;;;;;;4884418;29;20145;-91
2023/04/27 09:08:00;;;;;;;11.23;3.55;;;9.80;52.40;;;;;;4883639;29;20056;-91
2023/04/27 09:10:28;;;;;;;11.80;3.80;;;9.80;51.50;;;;;;4882759;29;20053;-91
2023/04/27 09:12:59;;;;;;;7.43;3.37;;;9.80;51.30;;;;;;4891005;29;20045;-92
2023/04/27 09:15:27;;;;;;;8.48;2.80;;;9.80;51.70;;;;;;4899869;29;20048;-91
2023/04/27 09:17:55;;;;;;;11.40;4.80;;;9.80;50.80;;;;;;4889431;29;20080;-92
2023/04/27 09:20:25;;;;;;;10.77;3.42;;;9.90;50.20;;;;;;4881804;29;20570;-92
2023/04/27 09:22:54;;;;;;;10.30;3.70;;;10.00;49.80;;;;;;4904919;29;20120;-92
2023/04/27 09:25:32;;;;;;;8.20;3.37;;;10.00;50.20;;;;;;4904441;29;20045;-91
2023/04/27 09:28:00;;;;;;;8.45;3.20;;;10.10;50.10;;;;;;4897410;29;20519;-92
2023/04/27 09:30:29;;;;;;;9.25;4.00;;;10.20;47.70;;;;;;4890240;29;20056;-91
2023/04/27 09:32:58;;;;;;;8.60;3.67;;;10.20;49.60;;;;;;4895031;29;20101;-92
2023/04/27 09:35:28;;;;;;;10.02;3.88;;;10.40;49.00;;;;;;4883169;29;20197;-92
2023/04/27 09:37:57;;;;;;;9.60;4.47;;;10.50;49.80;;;;;;4883372;29;20732;-91
2023/04/27 09:40:28;;;;;;;8.43;3.95;;;10.50;50.30;;;;;;4882783;29;20078;-92
2023/04/27 09:42:56;;;;;;;12.45;6.20;;;10.50;46.90;;;;;;4898992;29;20403;-91
2023/04/27 09:45:24;;;;;;;11.20;5.40;;;10.60;49.20;;;;;;4894763;29;20168;-92
2023/04/27 09:47:52;;;;;;;10.10;5.28;;;10.70;49.00;;;;;;4899147;29;20037;-92
2023/04/27 09:50:20;;;;;;;10.30;4.20;;;10.60;48.60;;;;;;4898923;29;20052;-91
2023/04/27 09:52:48;;;;;;;10.25;4.07;;;10.60;48.10;;;;;;4899251;29;20139;-92
2023/04/27 09:55:23;;;;;;;7.95;4.22;;;10.50;47.40;;;;;;4879646;29;20079;-91
2023/04/27 09:58:35;;;;;;;10.25;4.20;;;10.60;48.40;;;;;;4905783;29;20103;-92
2023/04/27 10:01:24;;;;;;;11.25;3.83;;;10.60;48.10;;;;;;4887011;29;20056;-92
2023/04/27 10:04:02;;;;;;;8.87;3.87;;;10.50;46.70;;;;;;4883561;29;20136;-92
2023/04/27 10:06:45;;;;;;;11.10;4.30;;;10.50;49.00;;;;;;4897866;29;20077;-91
2023/04/27 10:09:12;;;;;;;9.45;4.07;;;10.40;47.30;;;;;;4897646;29;20104;-91
2023/04/27 10:11:42;;;;;;;9.77;3.80;;;10.40;47.80;;;;;;4883339;29;20055;-91
2023/04/27 10:14:17;;;;;;;8.95;3.70;;;10.40;47.60;;;;;;4907480;29;20499;-91
2023/04/27 10:16:45;;;;;;;7.70;3.40;;;10.50;49.20;;;;;;4901310;29;20052;-92
2023/04/27 10:19:13;;;;;;;10.98;4.30;;;10.70;47.30;;;;;;4883224;29;20072;-92
2023/04/27 10:21:52;;;;;;;9.30;3.90;;;10.90;47.60;;;;;;4898496;29;20136;-91
2023/04/27 10:24:31;;;;;;;9.38;4.15;;;11.20;44.90;;;;;;4898433;29;20521;-92
2023/04/27 10:27:06;;;;;;;9.63;3.63;;;11.30;46.00;;;;;;4909826;29;20049;-92
2023/04/27 10:29:45;;;;;;;7.70;3.77;;;11.40;43.90;;;;;;4876898;29;20048;-92
2023/04/27 10:32:22;;;;;;;8.10;3.42;;;11.30;43.00;;;;;;4898214;29;20055;-91
2023/04/27 10:34:51;;;;;;;7.57;3.70;;;11.30;43.50;;;;;;4882778;29;20100;-92
2023/04/27 10:37:20;;;;;;;7.80;3.25;;;11.40;44.50;;;;;;4867442;29;20048;-92
2023/04/27 10:39:47;;;;;;;9.15;3.70;;;11.50;44.80;;;;;;4869759;29;20381;-92
2023/04/27 10:42:29;;;;;;;9.57;2.73;;;11.70;44.70;;;;;;4868298;29;20052;-92
2023/04/27 10:44:57;;;;;;;7.60;2.95;;;12.00;42.80;;;;;;4890721;29;20049;-92
2023/04/27 10:47:42;;;;;;;10.65;3.00;;;11.90;40.90;;;;;;4864680;29;20071;-92
2023/04/27 10:50:12;;;;;;;9.52;3.80;;;12.00;42.90;;;;;;4866921;29;20068;-92
2023/04/27 10:52:43;;;;;;;8.45;3.10;;;12.30;44.70;;;;;;4881734;29;20076;-92
2023/04/27 10:55:20;;;;;;;7.63;2.70;;;12.50;41.10;;;;;;4883918;29;20049;-92
2023/04/27 10:57:55;;;;;;;11.60;3.38;;;12.10;41.00;;;;;;4876881;29;20052;-91
2023/04/27 11:00:36;;;;;;;8.35;2.70;;;11.70;40.60;;;;;;4882079;29;20044;-91
2023/04/27 11:03:18;;;;;;;8.80;3.10;;;11.40;41.40;;;;;;4882037;29;20040;-92
2023/04/27 11:05:58;;;;;;;7.10;2.70;;;11.40;43.80;;;;;;4866915;29;20060;-92
2023/04/27 11:08:25;;;;;;;9.03;3.20;;;11.20;43.90;;;;;;4882262;29;20052;-91
2023/04/27 11:10:52;;;;;;;9.15;3.00;;;11.00;44.10;;;;;;4866506;29;20049;-91
2023/04/27 11:13:25;;;;;;;8.13;3.00;;;10.80;44.90;;;;;;4866712;29;20495;-91
2023/04/27 11:15:57;;;;;;;13.07;3.47;;;10.60;46.00;;;;;;4864759;29;20056;-91
2023/04/27 11:18:26;;;;;;;12.25;5.20;;;10.50;45.60;;;;;;4866590;29;20052;-92
2023/04/27 11:21:06;;;;;;;7.70;3.30;;;10.70;45.70;;;;;;4882116;29;20499;-92
2023/04/27 11:23:37;;;;;;;8.25;2.72;;;10.80;46.20;;;;;;4881286;29;20410;-92
2023/04/27 11:26:17;;;;;;;8.75;3.08;;;10.80;45.30;;;;;;4872215;29;20109;-92
2023/04/27 11:28:55;;;;;;;8.45;3.13;;;10.80;44.90;;;;;;4881146;29;20045;-92
2023/04/27 11:31:23;;;;;;;10.45;4.25;;;11.00;46.10;;;;;;4866888;29;20052;-91
2023/04/27 11:33:51;;;;;;;10.07;3.33;;;11.10;45.60;;;;;;4868098;29;20057;-92
2023/04/27 11:36:20;;;;;;;10.13;3.83;;;11.20;44.60;;;;;;4891618;29;20052;-91
2023/04/27 11:38:47;;;;;;;13.10;6.60;;;11.50;46.90;;;;;;4897334;29;20040;-92
2023/04/27 11:41:18;;;;;;;14.38;5.15;;;11.90;46.40;;;;;;4897193;29;20049;-92
2023/04/27 11:43:47;;;;;;;8.48;3.08;;;12.20;47.20;;;;;;4881070;29;20041;-92
2023/04/27 11:46:18;;;;;;;8.07;3.90;;;12.30;42.30;;;;;;4889818;29;20052;-93
2023/04/27 11:48:46;;;;;;;9.98;3.85;;;12.50;43.10;;;;;;4887651;29;20056;-92
2023/04/27 11:51:13;;;;;;;14.98;8.10;;;12.60;42.90;;;;;;4888209;29;20059;-92
2023/04/27 11:53:41;;;;;;;9.35;3.78;;;12.70;42.10;;;;;;4895554;29;20089;-92
2023/04/27 11:56:09;;;;;;;14.57;6.18;;;12.60;44.30;;;;;;4897359;29;20045;-92
2023/04/27 11:58:38;;;;;;;8.10;3.20;;;12.60;43.40;;;;;;4897283;29;20139;-92
2023/04/27 12:01:06;;;;;;;7.80;3.15;;;12.40;41.60;;;;;;4882110;29;20051;-92
2023/04/27 12:03:33;;;;;;;10.98;3.92;;;12.20;42.00;;;;;;4902376;29;20045;-92
2023/04/27 12:06:03;;;;;;;10.85;4.60;;;12.20;43.20;;;;;;4879418;29;20128;-92
2023/04/27 12:08:51;;;;;;;9.10;3.25;;;12.20;44.70;;;;;;4892877;29;20041;-92
2023/04/27 12:11:18;;;;;;;8.13;3.53;;;12.40;42.40;;;;;;4888692;29;21706;-92
2023/04/27 12:13:46;;;;;;;9.10;3.67;;;12.50;42.70;;;;;;4897352;29;20140;-92
2023/04/27 12:16:13;;;;;;;8.35;3.17;;;12.60;44.60;;;;;;4896790;29;20100;-92
2023/04/27 12:18:40;;;;;;;7.40;2.88;;;12.50;42.50;;;;;;4897349;29;20052;-92
2023/04/27 12:21:07;;;;;;;8.00;2.92;;;12.40;43.80;;;;;;4897167;29;20520;-92
2023/04/27 12:23:35;;;;;;;7.00;2.70;;;12.50;42.50;;;;;;4897018;29;20546;-92
2023/04/27 12:26:04;;;;;;;8.82;3.60;;;12.40;40.80;;;;;;4881756;29;20045;-92
2023/04/27 12:28:31;;;;;;;8.50;3.00;;;12.50;40.70;;;;;;4897227;29;20048;-92
2023/04/27 12:31:00;;;;;;;7.85;3.28;;;12.40;40.40;;;;;;4887362;29;20044;-92
2023/04/27 12:33:28;;;;;;;8.50;3.33;;;12.50;40.90;;;;;;4897098;29;20055;-92
2023/04/27 12:35:55;;;;;;;7.47;3.17;;;12.50;41.60;;;;;;4881534;29;20052;-92
2023/04/27 12:38:22;;;;;;;14.63;3.88;;;12.80;41.80;;;;;;4897114;29;20053;-92
2023/04/27 12:40:49;;;;;;;11.27;4.07;;;13.00;44.50;;;;;;4897028;29;20564;-92
2023/04/27 12:43:16;;;;;;;12.57;4.13;;;13.10;42.60;;;;;;4898889;29;20044;-92
2023/04/27 12:45:43;;;;;;;10.13;3.15;;;13.00;41.50;;;;;;4894214;29;20096;-92
2023/04/27 12:48:10;;;;;;;7.80;3.17;;;12.70;41.60;;;;;;4885256;29;20044;-92
2023/04/27 12:50:37;;;;;;;7.22;2.72;;;12.60;43.30;;;;;;4897329;29;20048;-93
2023/04/27 12:53:04;;;;;;;11.63;3.83;;;12.60;43.20;;;;;;4885098;29;20147;-92